Time;durP1;ratioP1;P1;durP2;ratioP2;P2;SDS_P1;SDS_P2;PMS_P1;PMS_P2;Temp;Humidity;BMP_temperature;BMP_pressure;BME280_temperature;BME280_humidity;BME280_pressure;Samples;Min_cycle;Max_cycle;Signal;HPM_P1;HPM_P2
2021/12/30 00:00:34;;;;;;;2.10;1.90;;;;;;;7.29;100.00;96480.06;4961138;28;20208;-84
2021/12/30 00:03:03;;;;;;;2.80;2.00;;;;;;;7.31;100.00;96498.66;4969859;28;20211;-82
2021/12/30 00:05:30;;;;;;;3.73;2.37;;;;;;;7.26;100.00;96493.91;4962661;28;20235;-84
2021/12/30 00:07:57;;;;;;;4.83;3.63;;;;;;;7.23;100.00;96502.34;4990416;28;20242;-83
2021/12/30 00:10:24;;;;;;;5.17;4.00;;;;;;;7.20;100.00;96508.16;4964975;28;20222;-84
2021/12/30 00:12:53;;;;;;;5.57;4.17;;;;;;;7.15;100.00;96516.81;4961966;28;20240;-83
2021/12/30 00:15:21;;;;;;;7.33;4.00;;;;;;;7.14;100.00;96512.50;4981693;28;20207;-84
2021/12/30 00:17:48;;;;;;;5.40;3.83;;;;;;;7.09;100.00;96506.06;4972115;28;20219;-83
2021/12/30 00:20:17;;;;;;;5.77;4.27;;;;;;;7.06;100.00;96506.50;4964460;28;20203;-83
2021/12/30 00:22:45;;;;;;;5.33;4.73;;;;;;;7.11;100.00;96517.44;4967198;28;20213;-83
2021/12/30 00:25:13;;;;;;;7.57;5.80;;;;;;;7.05;100.00;96520.94;4960376;28;20208;-83
2021/12/30 00:27:40;;;;;;;5.80;4.30;;;;;;;7.11;100.00;96522.81;4963952;28;20255;-83
2021/12/30 00:30:11;;;;;;;4.30;3.73;;;;;;;7.08;100.00;96520.53;4967726;28;20270;-84
2021/12/30 00:32:38;;;;;;;4.33;3.57;;;;;;;7.06;100.00;96519.91;4978002;28;20219;-83
2021/12/30 00:35:06;;;;;;;4.03;3.47;;;;;;;7.12;100.00;96511.88;4973075;28;20208;-83
2021/12/30 00:37:35;;;;;;;4.93;3.43;;;;;;;7.22;100.00;96512.31;4956066;28;20208;-83
2021/12/30 00:40:02;;;;;;;4.57;2.40;;;;;;;7.30;100.00;96524.69;4978995;28;20216;-83
2021/12/30 00:42:29;;;;;;;4.60;3.00;;;;;;;7.30;100.00;96513.97;4981241;28;20212;-83
2021/12/30 00:44:56;;;;;;;4.03;2.60;;;;;;;7.32;100.00;96511.88;4969566;28;20212;-84
2021/12/30 00:47:23;;;;;;;2.60;2.40;;;;;;;7.38;100.00;96513.75;4981502;28;20307;-85
2021/12/30 00:49:52;;;;;;;2.93;2.43;;;;;;;7.40;100.00;96517.03;4982906;28;20204;-83
2021/12/30 00:52:19;;;;;;;5.33;2.90;;;;;;;7.41;100.00;96526.75;4985569;28;20214;-83
2021/12/30 00:54:47;;;;;;;2.77;2.47;;;;;;;7.44;100.00;96539.78;4968458;28;20211;-83
2021/12/30 00:57:14;;;;;;;2.93;2.40;;;;;;;7.47;100.00;96534.00;4988386;28;20258;-84
2021/12/30 00:59:41;;;;;;;2.20;1.80;;;;;;;7.59;100.00;96528.81;4983693;28;20235;-83
2021/12/30 01:02:08;;;;;;;5.10;2.87;;;;;;;7.61;100.00;96553.63;4977368;28;20228;-83
2021/12/30 01:04:36;;;;;;;2.60;2.40;;;;;;;7.56;100.00;96561.50;4988498;28;20243;-83
2021/12/30 01:07:03;;;;;;;3.43;2.57;;;;;;;7.53;100.00;96564.59;4981025;28;20244;-84
2021/12/30 01:09:30;;;;;;;2.17;1.97;;;;;;;7.49;100.00;96568.72;4985349;28;20212;-83
2021/12/30 01:11:59;;;;;;;3.20;2.27;;;;;;;7.53;100.00;96568.09;4969621;28;20276;-83
2021/12/30 01:14:30;;;;;;;3.03;1.80;;;;;;;7.60;100.00;96585.06;4965710;28;20220;-83
2021/12/30 01:17:00;;;;;;;3.23;2.10;;;;;;;7.62;100.00;96595.59;4965796;28;20271;-83
2021/12/30 01:22:29;;;;;;;4.00;2.00;;;;;;;7.56;100.00;96601.81;5106618;27;20608;-85
2021/12/30 01:24:57;;;;;;;5.50;4.70;;;;;;;7.44;100.00;96623.06;5093831;28;20208;-84
2021/12/30 01:27:24;;;;;;;7.70;5.80;;;;;;;7.30;100.00;96620.56;5095821;28;20200;-84
2021/12/30 01:29:54;;;;;;;6.33;4.83;;;;;;;7.24;100.00;96614.13;5098238;28;20211;-84
2021/12/30 01:32:22;;;;;;;5.57;4.97;;;;;;;7.24;100.00;96611.44;5090572;28;20216;-84
2021/12/30 01:34:49;;;;;;;7.73;5.93;;;;;;;7.20;100.00;96624.47;5093163;28;20321;-85
2021/12/30 01:37:20;;;;;;;11.33;7.60;;;;;;;7.07;100.00;96621.72;5076334;28;20328;-84
2021/12/30 01:39:48;;;;;;;9.17;7.07;;;;;;;7.01;100.00;96621.72;5075670;28;20212;-84
2021/12/30 01:42:16;;;;;;;7.70;6.10;;;;;;;7.05;100.00;96618.44;5091300;28;20231;-84
2021/12/30 01:44:43;;;;;;;8.97;6.67;;;;;;;7.02;100.00;96607.25;5077063;28;20236;-84
2021/12/30 01:47:10;;;;;;;8.63;6.70;;;;;;;7.02;100.00;96607.25;5069329;28;20300;-84
2021/12/30 01:49:37;;;;;;;13.77;7.47;;;;;;;6.98;100.00;96632.84;5079141;28;20291;-84
2021/12/30 01:52:05;;;;;;;8.87;6.57;;;;;;;6.95;100.00;96652.88;5075403;28;20225;-84
2021/12/30 01:54:34;;;;;;;10.80;7.03;;;;;;;7.00;100.00;96625.41;5068429;28;20232;-84
2021/12/30 01:57:06;;;;;;;10.00;6.87;;;;;;;6.93;100.00;96635.31;5073209;28;20319;-84
2021/12/30 01:59:36;;;;;;;9.73;6.80;;;;;;;6.92;100.00;96644.38;5075723;28;20266;-84
2021/12/30 02:02:03;;;;;;;6.90;5.80;;;;;;;7.01;100.00;96654.75;5074590;28;20221;-84
2021/12/30 02:04:33;;;;;;;6.83;5.30;;;;;;;7.06;100.00;96654.16;5084837;28;20220;-84
2021/12/30 02:07:00;;;;;;;5.33;4.43;;;;;;;7.25;100.00;96656.06;5074748;28;20206;-84
2021/12/30 02:09:29;;;;;;;5.77;4.77;;;;;;;7.24;100.00;96649.03;5069559;28;20293;-84
2021/12/30 02:11:57;;;;;;;7.23;5.20;;;;;;;7.19;100.00;96654.19;5077328;28;20216;-84
2021/12/30 02:14:25;;;;;;;7.33;5.10;;;;;;;7.17;100.00;96649.03;5088233;28;20205;-84
2021/12/30 02:16:53;;;;;;;5.83;4.40;;;;;;;7.14;100.00;96645.94;5094498;28;20198;-84
2021/12/30 02:19:20;;;;;;;6.30;4.20;;;;;;;7.12;100.00;96642.63;5070979;28;20205;-84
2021/12/30 02:21:49;;;;;;;6.53;4.13;;;;;;;7.17;100.00;96648.19;5085283;28;20239;-84
2021/12/30 02:24:16;;;;;;;4.57;3.37;;;;;;;7.24;100.00;96651.72;5075606;28;20205;-84
2021/12/30 02:26:43;;;;;;;6.07;3.07;;;;;;;7.31;100.00;96643.72;5070689;28;20320;-84
2021/12/30 02:29:10;;;;;;;3.80;3.40;;;;;;;7.39;100.00;96635.47;5075084;28;20224;-84
2021/12/30 02:31:40;;;;;;;5.57;4.03;;;;;;;7.34;100.00;96625.31;5077252;28;20216;-83
2021/12/30 02:34:07;;;;;;;4.87;3.67;;;;;;;7.31;100.00;96620.38;5057432;28;20194;-84
2021/12/30 02:36:36;;;;;;;4.23;2.97;;;;;;;7.33;100.00;96631.72;5057842;28;20229;-85
2021/12/30 02:39:07;;;;;;;4.23;2.40;;;;;;;7.37;100.00;96643.72;5063635;28;20288;-84
2021/12/30 02:41:36;;;;;;;3.63;2.50;;;;;;;7.40;100.00;96640.63;5061101;28;20269;-84
2021/12/30 02:44:05;;;;;;;4.03;3.03;;;;;;;7.41;100.00;96644.97;5060320;28;20217;-84
2021/12/30 02:46:34;;;;;;;3.00;2.70;;;;;;;7.44;100.00;96649.94;5052718;28;20206;-84
2021/12/30 02:49:02;;;;;;;2.47;1.90;;;;;;;7.45;100.00;96640.03;5070543;28;20206;-84
2021/12/30 02:51:29;;;;;;;2.77;1.60;;;;;;;7.48;100.00;96648.50;5058339;28;20210;-84
2021/12/30 02:53:56;;;;;;;1.80;1.40;;;;;;;7.50;100.00;96659.84;5060331;28;20202;-84
2021/12/30 02:56:26;;;;;;;3.63;1.50;;;;;;;7.50;100.00;96670.59;5060759;28;20295;-84
2021/12/30 02:58:54;;;;;;;1.90;1.50;;;;;;;7.52;100.00;96673.94;5057509;28;20285;-84
2021/12/30 03:01:23;;;;;;;3.10;1.37;;;;;;;7.52;100.00;96673.94;5052456;28;20245;-84
2021/12/30 03:03:51;;;;;;;1.20;1.10;;;;;;;7.58;100.00;96681.16;5062335;28;20202;-84
2021/12/30 03:06:19;;;;;;;1.60;1.47;;;;;;;7.58;100.00;96683.03;5054879;28;20263;-84
2021/12/30 03:08:47;;;;;;;2.63;1.33;;;;;;;7.55;100.00;96684.28;5060152;28;20210;-84
2021/12/30 03:11:15;;;;;;;3.07;1.97;;;;;;;7.48;100.00;96678.06;5061895;28;20209;-84
2021/12/30 03:13:44;;;;;;;2.80;2.03;;;;;;;7.44;100.00;96681.34;5055583;28;20233;-84
2021/12/30 03:16:17;;;;;;;4.80;2.10;;;;;;;7.43;100.00;96696.63;5052558;28;20314;-84
2021/12/30 03:18:47;;;;;;;3.43;2.30;;;;;;;7.39;100.00;96695.41;5063304;28;20210;-84
2021/12/30 03:21:16;;;;;;;3.07;2.20;;;;;;;7.33;100.00;96696.19;5079347;28;20528;-84
2021/12/30 03:23:43;;;;;;;4.67;3.63;;;;;;;7.34;100.00;96703.22;5057054;28;20202;-83
2021/12/30 03:26:11;;;;;;;5.63;4.87;;;;;;;7.29;100.00;96700.31;5057745;28;20209;-84
2021/12/30 03:28:40;;;;;;;5.60;4.90;;;;;;;7.30;100.00;96701.16;5070080;28;20197;-84
2021/12/30 03:31:09;;;;;;;5.93;5.30;;;;;;;7.17;100.00;96697.38;5061053;28;20198;-83
2021/12/30 03:33:37;;;;;;;6.30;4.90;;;;;;;7.14;100.00;96721.13;5055445;28;20301;-84
2021/12/30 03:36:06;;;;;;;6.50;4.80;;;;;;;7.12;100.00;96731.22;5059620;28;20450;-84
2021/12/30 03:38:36;;;;;;;7.00;4.80;;;;;;;7.21;100.00;96719.28;5055140;28;20210;-84
2021/12/30 03:41:05;;;;;;;5.07;4.40;;;;;;;7.22;100.00;96712.91;5065091;28;20232;-84
2021/12/30 03:43:32;;;;;;;6.60;4.70;;;;;;;7.26;100.00;96711.44;5058506;28;20205;-84
2021/12/30 03:45:59;;;;;;;6.20;4.80;;;;;;;7.26;100.00;96705.25;5062930;28;20229;-84
2021/12/30 03:48:33;;;;;;;6.13;4.37;;;;;;;7.33;100.00;96712.31;5047770;28;20506;-84
2021/12/30 03:51:04;;;;;;;5.83;4.53;;;;;;;7.31;100.00;96713.56;5076382;28;20202;-84
2021/12/30 03:53:32;;;;;;;6.07;5.03;;;;;;;7.35;100.00;96714.78;5060657;28;20286;-84
2021/12/30 03:55:59;;;;;;;5.13;4.43;;;;;;;7.33;100.00;96717.66;5060571;28;20202;-83
2021/12/30 03:58:26;;;;;;;5.30;4.80;;;;;;;7.35;100.00;96729.06;5056377;28;20461;-84
2021/12/30 04:00:54;;;;;;;5.53;4.93;;;;;;;7.32;100.00;96737.50;5051141;28;20293;-84
2021/12/30 04:03:21;;;;;;;6.20;4.43;;;;;;;7.35;100.00;96753.22;5059397;28;20296;-84
2021/12/30 04:05:49;;;;;;;10.50;5.23;;;;;;;7.39;100.00;96748.31;5048653;28;20221;-84
2021/12/30 04:08:16;;;;;;;6.17;4.50;;;;;;;7.38;100.00;96752.84;5068755;28;20214;-84
2021/12/30 04:10:43;;;;;;;4.60;3.90;;;;;;;7.38;100.00;96758.22;5059966;28;20206;-84
2021/12/30 04:13:10;;;;;;;4.43;3.93;;;;;;;7.39;100.00;96765.25;5053141;28;20205;-84
2021/12/30 04:15:37;;;;;;;4.40;3.37;;;;;;;7.43;100.00;96768.34;5057127;28;20202;-84
2021/12/30 04:18:05;;;;;;;5.10;3.33;;;;;;;7.48;100.00;96764.06;5054807;28;20292;-84
2021/12/30 04:20:32;;;;;;;5.80;3.67;;;;;;;7.47;100.00;96765.06;5053673;28;20247;-83
2021/12/30 04:23:00;;;;;;;4.00;3.33;;;;;;;7.51;100.00;96758.25;5054815;28;20297;-84
2021/12/30 04:25:28;;;;;;;4.87;3.10;;;;;;;7.51;100.00;96747.50;5057784;28;20306;-84
2021/12/30 04:27:55;;;;;;;3.87;2.77;;;;;;;7.55;100.00;96758.69;5061538;28;20221;-84
2021/12/30 04:30:22;;;;;;;10.03;3.80;;;;;;;7.56;100.00;96749.59;5070041;28;20212;-84
2021/12/30 04:32:49;;;;;;;2.90;2.60;;;;;;;7.65;100.00;96763.69;5060349;28;20212;-84
2021/12/30 04:35:19;;;;;;;3.20;2.30;;;;;;;7.67;100.00;96762.44;5056988;28;20209;-84
2021/12/30 04:37:47;;;;;;;4.70;2.30;;;;;;;7.71;100.00;96760.19;5072726;28;20304;-84
2021/12/30 04:40:16;;;;;;;2.40;2.20;;;;;;;7.68;100.00;96760.59;5061056;28;20212;-84
2021/12/30 04:42:43;;;;;;;2.27;1.80;;;;;;;7.71;100.00;96774.47;5057123;28;20225;-84
2021/12/30 04:45:12;;;;;;;2.23;2.03;;;;;;;7.75;100.00;96769.50;5049386;28;20209;-84
2021/12/30 04:47:42;;;;;;;4.20;3.50;;;;;;;7.72;100.00;96760.00;5060137;28;20296;-84
2021/12/30 04:50:11;;;;;;;2.70;2.50;;;;;;;7.72;100.00;96761.84;5059112;28;20241;-85
2021/12/30 04:52:38;;;;;;;3.10;2.80;;;;;;;7.70;100.00;96763.91;5058569;28;20211;-84
2021/12/30 04:55:07;;;;;;;2.87;2.30;;;;;;;7.67;100.00;96766.97;5055980;28;20209;-84
2021/12/30 04:57:36;;;;;;;2.83;2.53;;;;;;;7.67;100.00;96772.34;5055092;28;20205;-84
2021/12/30 05:00:06;;;;;;;4.50;2.80;;;;;;;7.65;100.00;96772.59;5053716;28;20202;-84
2021/12/30 05:02:49;;;;;;;3.07;2.73;;;;;;;7.64;100.00;96773.63;5058613;28;20618;-83
2021/12/30 05:05:17;;;;;;;3.83;2.20;;;;;;;7.66;100.00;96773.38;5049231;28;20202;-85
2021/12/30 05:07:44;;;;;;;2.00;1.80;;;;;;;7.60;100.00;96775.84;5057018;28;20209;-84
2021/12/30 05:10:11;;;;;;;3.00;2.20;;;;;;;7.62;100.00;96788.28;5059010;28;20216;-84
2021/12/30 05:12:40;;;;;;;3.37;2.07;;;;;;;7.62;100.00;96790.97;5054802;28;20209;-84
2021/12/30 05:15:09;;;;;;;3.83;1.80;;;;;;;7.64;100.00;96786.22;5059200;28;20540;-84
2021/12/30 05:17:36;;;;;;;2.70;2.10;;;;;;;7.69;100.00;96783.75;5075016;28;20205;-84
2021/12/30 05:20:04;;;;;;;3.23;1.90;;;;;;;7.67;100.00;96799.25;5053850;28;20293;-84
2021/12/30 05:22:32;;;;;;;2.73;2.00;;;;;;;7.62;100.00;96799.84;5053143;28;20275;-85
2021/12/30 05:24:59;;;;;;;3.53;2.37;;;;;;;7.70;100.00;96806.91;5057367;28;20212;-84
2021/12/30 05:27:26;;;;;;;2.20;1.80;;;;;;;7.68;100.00;96809.78;5059093;28;20426;-84
2021/12/30 05:29:54;;;;;;;3.10;2.30;;;;;;;7.63;100.00;96795.31;5058700;28;20312;-84
2021/12/30 05:32:21;;;;;;;4.03;2.80;;;;;;;7.59;100.00;96803.75;5053475;28;20456;-84
2021/12/30 05:34:48;;;;;;;3.03;2.10;;;;;;;7.63;100.00;96808.75;5056844;28;20216;-84
2021/12/30 05:37:16;;;;;;;3.90;3.07;;;;;;;7.57;100.00;96800.44;5055413;28;20220;-83
2021/12/30 05:39:43;;;;;;;2.60;2.40;;;;;;;7.57;100.00;96799.63;5052600;28;20210;-84
2021/12/30 05:42:10;;;;;;;4.10;2.80;;;;;;;7.60;100.00;96801.91;5076964;28;20293;-84
2021/12/30 05:44:37;;;;;;;4.00;2.70;;;;;;;7.55;100.00;96810.59;5051438;28;20213;-85
2021/12/30 05:47:06;;;;;;;3.50;3.00;;;;;;;7.55;100.00;96810.59;5052316;28;20198;-84
2021/12/30 05:49:33;;;;;;;5.03;3.07;;;;;;;7.55;100.00;96807.91;5058045;28;20239;-84
2021/12/30 05:52:00;;;;;;;5.13;3.40;;;;;;;7.58;100.00;96807.47;5050074;28;20198;-84
2021/12/30 05:54:27;;;;;;;3.83;3.00;;;;;;;7.58;100.00;96794.03;5068691;28;20237;-83
2021/12/30 05:56:54;;;;;;;3.30;3.00;;;;;;;7.58;100.00;96807.47;5055437;28;20221;-84
2021/12/30 05:59:22;;;;;;;4.23;3.40;;;;;;;7.57;100.00;96797.75;5067153;28;20221;-83
2021/12/30 06:01:49;;;;;;;4.67;3.63;;;;;;;7.57;100.00;96805.81;5075003;28;20226;-84
2021/12/30 06:04:17;;;;;;;3.83;3.10;;;;;;;7.58;100.00;96812.84;5057457;28;20218;-84
2021/12/30 06:06:44;;;;;;;5.73;3.43;;;;;;;7.58;100.00;96804.78;5061340;28;20209;-84
2021/12/30 06:09:11;;;;;;;4.77;4.27;;;;;;;7.59;100.00;96803.75;5054181;28;20213;-83
2021/12/30 06:11:39;;;;;;;4.33;3.80;;;;;;;7.60;100.00;96807.28;5055886;28;20209;-84
2021/12/30 06:14:06;;;;;;;6.33;3.30;;;;;;;7.62;100.00;96807.91;5060216;28;20224;-84
2021/12/30 06:16:34;;;;;;;4.70;3.50;;;;;;;7.64;100.00;96805.88;5063501;28;20220;-84
2021/12/30 06:19:01;;;;;;;3.83;3.17;;;;;;;7.56;100.00;96812.25;5056580;28;20201;-84
2021/12/30 06:21:30;;;;;;;5.13;3.23;;;;;;;7.56;100.00;96824.84;5062503;28;20237;-84
2021/12/30 06:23:57;;;;;;;4.57;3.30;;;;;;;7.56;100.00;96833.75;5054881;28;20205;-84
2021/12/30 06:26:24;;;;;;;3.00;2.70;;;;;;;7.52;100.00;96824.41;5061104;28;20240;-84
2021/12/30 06:28:51;;;;;;;5.57;3.10;;;;;;;7.58;100.00;96839.72;5064792;28;20209;-84
2021/12/30 06:31:18;;;;;;;3.37;2.83;;;;;;;7.63;100.00;96846.38;5055042;28;20291;-84
2021/12/30 06:33:46;;;;;;;5.27;3.83;;;;;;;7.66;100.00;96845.94;5056085;28;20288;-84
2021/12/30 06:36:13;;;;;;;5.23;3.10;;;;;;;7.61;100.00;96854.63;5054021;28;20288;-84
2021/12/30 06:38:42;;;;;;;4.67;3.00;;;;;;;7.51;100.00;96846.09;5059104;28;20675;-84
2021/12/30 06:41:09;;;;;;;4.63;2.73;;;;;;;7.54;100.00;96859.16;5062634;28;20206;-85
2021/12/30 06:43:36;;;;;;;4.07;2.67;;;;;;;7.48;100.00;96850.03;5061925;28;20248;-84
2021/12/30 06:46:05;;;;;;;4.53;2.40;;;;;;;7.51;100.00;96863.06;5062305;28;20268;-84
2021/12/30 06:48:32;;;;;;;4.67;3.03;;;;;;;7.48;100.00;96859.94;5074099;28;20240;-83
2021/12/30 06:51:00;;;;;;;3.80;2.53;;;;;;;7.50;100.00;96869.44;5062806;28;20208;-84
2021/12/30 06:53:27;;;;;;;6.00;2.67;;;;;;;7.55;100.00;96871.56;5061269;28;20479;-84
2021/12/30 06:55:56;;;;;;;6.10;2.80;;;;;;;7.61;100.00;96876.13;5054077;28;20216;-84
2021/12/30 06:58:24;;;;;;;4.60;2.40;;;;;;;7.67;100.00;96886.06;5062174;28;20286;-84
2021/12/30 07:00:51;;;;;;;4.37;3.40;;;;;;;7.64;100.00;96880.28;5063163;28;20202;-83
2021/12/30 07:03:19;;;;;;;2.40;1.90;;;;;;;7.69;100.00;96883.19;5061697;28;20276;-84
2021/12/30 07:05:46;;;;;;;1.70;1.33;;;;;;;7.77;100.00;96874.97;5062304;28;20206;-84
2021/12/30 07:08:14;;;;;;;2.33;2.00;;;;;;;7.87;100.00;96884.31;5058914;28;20249;-83
2021/12/30 07:10:42;;;;;;;2.37;1.93;;;;;;;7.90;100.00;96886.63;5057211;28;20216;-84
2021/12/30 07:13:11;;;;;;;4.13;1.70;;;;;;;7.88;100.00;96877.09;5059225;28;20209;-84
2021/12/30 07:15:38;;;;;;;2.93;1.60;;;;;;;7.87;100.00;96876.25;5064592;28;20292;-84
2021/12/30 07:18:05;;;;;;;2.00;1.90;;;;;;;7.88;100.00;96877.09;5053272;28;20210;-83
2021/12/30 07:20:33;;;;;;;2.50;2.00;;;;;;;7.86;100.00;96868.38;5048580;28;20238;-83
2021/12/30 07:23:00;;;;;;;7.00;3.90;;;;;;;7.79;100.00;96872.91;5060809;28;20225;-83
2021/12/30 07:25:27;;;;;;;3.90;2.93;;;;;;;7.78;100.00;96882.00;5051680;28;20194;-84
2021/12/30 07:27:55;;;;;;;3.93;2.20;;;;;;;7.70;100.00;96874.09;5063841;28;20206;-83
2021/12/30 07:30:25;;;;;;;3.77;2.60;;;;;;;7.67;100.00;96883.38;5062273;28;20245;-84
2021/12/30 07:32:53;;;;;;;5.53;3.50;;;;;;;7.70;100.00;96901.81;5058530;28;20259;-84
2021/12/30 07:35:21;;;;;;;5.80;3.47;;;;;;;7.65;100.00;96901.59;5059760;28;20474;-83
2021/12/30 07:37:50;;;;;;;5.07;3.70;;;;;;;7.68;100.00;96908.41;5069778;28;20271;-84
2021/12/30 07:40:18;;;;;;;5.53;2.93;;;;;;;7.70;100.00;96901.00;5056231;28;20202;-84
2021/12/30 07:42:45;;;;;;;5.17;3.17;;;;;;;7.65;100.00;96898.91;5062513;28;20230;-85
2021/12/30 07:45:13;;;;;;;4.20;3.30;;;;;;;7.64;100.00;96908.00;5054316;28;20275;-85
2021/12/30 07:47:42;;;;;;;5.47;3.33;;;;;;;7.73;100.00;96900.59;5061818;28;20229;-84
2021/12/30 07:50:10;;;;;;;4.90;3.00;;;;;;;7.66;100.00;96903.22;5060513;28;20300;-84
2021/12/30 07:52:38;;;;;;;2.43;2.23;;;;;;;7.70;100.00;96898.31;5064425;28;20208;-85
2021/12/30 07:55:07;;;;;;;4.57;2.70;;;;;;;7.71;100.00;96899.97;5056143;28;20197;-84
2021/12/30 07:57:35;;;;;;;3.17;2.73;;;;;;;7.71;100.00;96891.91;5062019;28;20228;-83
2021/12/30 08:00:06;;;;;;;5.60;3.47;;;;;;;7.70;100.00;96901.00;5056740;28;20198;-84
2021/12/30 08:02:42;;;;;;;11.40;7.77;;;;;;;7.69;100.00;96905.53;5059438;28;20225;-84
2021/12/30 08:05:10;;;;;;;9.63;7.33;;;;;;;7.71;100.00;96908.03;5060887;28;20272;-85
2021/12/30 08:07:37;;;;;;;11.13;7.27;;;;;;;7.66;100.00;96910.47;5060868;28;20259;-84
2021/12/30 08:10:10;;;;;;;10.53;6.60;;;;;;;7.67;100.00;96917.50;5052145;28;20305;-83
2021/12/30 08:12:39;;;;;;;6.07;5.10;;;;;;;7.73;100.00;96911.34;5057695;28;20291;-84
2021/12/30 08:15:08;;;;;;;5.30;4.80;;;;;;;7.75;100.00;96911.97;5052846;28;20210;-84
2021/12/30 08:17:37;;;;;;;6.00;4.43;;;;;;;7.82;100.00;96916.38;5056958;28;20217;-84
2021/12/30 08:20:07;;;;;;;7.90;5.70;;;;;;;7.85;100.00;96915.94;5064943;28;20210;-84
2021/12/30 08:22:34;;;;;;;7.47;5.10;;;;;;;7.91;100.00;96922.41;5022252;28;20309;-83
2021/12/30 08:25:02;;;;;;;7.27;3.20;;;;;;;7.89;100.00;96917.22;5024454;28;20209;-83
2021/12/30 08:27:29;;;;;;;5.40;3.40;;;;;;;7.83;100.00;96917.19;5021832;28;20299;-84
2021/12/30 08:29:56;;;;;;;4.67;3.50;;;;;;;7.82;100.00;96926.28;5020243;28;20237;-83
2021/12/30 08:32:23;;;;;;;5.57;3.60;;;;;;;7.82;100.00;96926.28;5017672;28;20221;-84
2021/12/30 08:34:50;;;;;;;4.87;3.60;;;;;;;7.84;100.00;96918.84;5020627;28;20213;-84
2021/12/30 08:37:19;;;;;;;4.57;3.80;;;;;;;7.89;100.00;96928.00;5018829;28;20233;-84
2021/12/30 08:39:46;;;;;;;6.97;3.77;;;;;;;7.95;100.00;96926.34;5022463;28;20213;-84
2021/12/30 08:42:21;;;;;;;5.60;4.27;;;;;;;8.04;100.00;96924.31;5034772;28;20210;-85
2021/12/30 08:44:49;;;;;;;5.87;4.00;;;;;;;8.08;100.00;96909.44;5021236;28;20213;-84
2021/12/30 08:47:16;;;;;;;7.43;4.87;;;;;;;8.15;100.00;96921.91;5019585;28;20329;-84
2021/12/30 08:49:46;;;;;;;9.80;4.50;;;;;;;8.20;100.00;96922.09;5023523;28;20248;-84
2021/12/30 08:52:33;;;;;;;5.67;4.03;;;;;;;8.17;100.00;96937.81;5016025;28;20301;-83
2021/12/30 08:55:04;;;;;;;4.43;3.90;;;;;;;8.09;100.00;96929.91;5023272;28;20203;-85
2021/12/30 08:57:37;;;;;;;6.97;4.60;;;;;;;8.13;100.00;96945.47;5008836;28;20325;-84
2021/12/30 09:00:09;;;;;;;6.77;4.23;;;;;;;8.13;100.00;96945.47;5013503;28;20301;-85
2021/12/30 09:02:36;;;;;;;5.30;3.70;;;;;;;8.26;100.00;96945.50;5013298;28;20214;-83
2021/12/30 09:05:04;;;;;;;6.87;5.10;;;;;;;8.29;100.00;96944.28;5023527;28;20227;-85
2021/12/30 09:07:32;;;;;;;5.60;4.20;;;;;;;8.34;100.00;96926.53;5013283;28;20211;-83
2021/12/30 09:09:59;;;;;;;5.63;3.93;;;;;;;8.52;100.00;96946.66;5020961;28;20210;-84
2021/12/30 09:12:26;;;;;;;4.67;3.00;;;;;;;8.61;100.00;96932.00;5017721;28;20329;-84
2021/12/30 09:14:54;;;;;;;4.40;3.37;;;;;;;8.73;100.00;96939.28;5017194;28;20261;-84
2021/12/30 09:17:21;;;;;;;8.13;3.43;;;;;;;8.76;100.00;96946.13;5023963;28;20326;-85
2021/12/30 09:19:48;;;;;;;5.20;3.77;;;;;;;8.85;100.00;96935.97;5010899;28;20215;-84
2021/12/30 09:22:15;;;;;;;6.63;3.93;;;;;;;8.87;100.00;96933.91;5045537;28;20422;-84
2021/12/30 09:24:43;;;;;;;7.60;4.10;;;;;;;8.92;100.00;96945.72;5069564;28;20221;-85
2021/12/30 09:27:10;;;;;;;8.33;4.40;;;;;;;8.97;100.00;96953.19;5054533;28;20218;-85
2021/12/30 09:29:38;;;;;;;6.10;4.43;;;;;;;9.02;100.00;96948.84;5062085;28;20210;-85
2021/12/30 09:32:06;;;;;;;7.50;4.20;;;;;;;9.05;100.00;96948.44;5055937;28;20197;-84
2021/12/30 09:34:33;;;;;;;6.00;4.17;;;;;;;9.05;100.00;96944.91;5052638;28;20237;-84
2021/12/30 09:37:00;;;;;;;4.03;3.53;;;;;;;9.15;100.00;96952.59;5058044;28;20294;-84
2021/12/30 09:39:27;;;;;;;6.43;4.00;;;;;;;9.24;100.00;96948.66;5069273;28;20205;-84
2021/12/30 09:41:56;;;;;;;7.77;3.80;;;;;;;9.31;100.00;96953.00;5060513;28;20271;-84
2021/12/30 09:44:23;;;;;;;6.67;3.67;;;;;;;9.38;100.00;96950.28;5058256;28;20324;-84
2021/12/30 09:46:50;;;;;;;5.57;4.47;;;;;;;9.45;100.00;96951.13;5057735;28;20220;-84
2021/12/30 09:49:22;;;;;;;9.43;5.83;;;;;;;9.50;100.00;96945.94;5054409;28;20236;-84
2021/12/30 09:51:50;;;;;;;8.70;6.00;;;;;;;9.59;100.00;96954.66;5066029;28;20204;-84
2021/12/30 09:54:17;;;;;;;9.60;5.67;;;;;;;9.60;100.00;96954.44;5059548;28;20272;-84
2021/12/30 09:56:45;;;;;;;9.63;5.97;;;;;;;9.66;100.00;96956.28;5063404;28;20225;-83
2021/12/30 09:59:14;;;;;;;8.97;7.17;;;;;;;9.71;100.00;96956.47;5051297;28;20237;-84
2021/12/30 10:01:43;;;;;;;10.83;6.90;;;;;;;9.85;100.00;96958.13;5060524;28;20206;-84
2021/12/30 10:04:14;;;;;;;5.97;4.53;;;;;;;9.96;100.00;96958.50;5054693;28;20312;-83
2021/12/30 10:06:43;;;;;;;6.47;4.13;;;;;;;10.04;100.00;96960.97;5057845;28;20245;-84
2021/12/30 10:09:12;;;;;;;8.23;3.70;;;;;;;10.14;100.00;96967.59;5079189;28;20333;-84
2021/12/30 10:11:48;;;;;;;4.67;3.23;;;;;;;10.22;100.00;96969.25;5053150;28;20295;-84
2021/12/30 10:14:29;;;;;;;5.00;3.13;;;;;;;10.26;100.00;96967.81;5058289;28;20212;-84
2021/12/30 10:17:17;;;;;;;4.50;3.17;;;;;;;10.37;100.00;96977.13;5063267;28;20205;-85
2021/12/30 10:19:44;;;;;;;7.53;4.47;;;;;;;10.41;100.00;96979.16;5056871;28;20205;-84
2021/12/30 10:22:12;;;;;;;7.43;3.83;;;;;;;10.53;100.00;96985.56;5064314;28;20229;-85
2021/12/30 10:24:40;;;;;;;7.00;3.60;;;;;;;10.66;100.00;96979.25;5061123;28;20214;-85
2021/12/30 10:27:08;;;;;;;4.97;3.10;;;;;;;10.77;100.00;96975.06;5062762;28;20229;-85
2021/12/30 10:29:44;;;;;;;4.17;2.90;;;;;;;10.79;100.00;96968.41;5056820;28;20228;-84
2021/12/30 10:32:15;;;;;;;5.03;3.13;;;;;;;11.02;100.00;96969.69;5060272;28;20205;-84
2021/12/30 10:35:08;;;;;;;5.67;3.63;;;;;;;11.30;100.00;96970.97;5060241;28;20240;-85
2021/12/30 10:37:42;;;;;;;3.60;2.80;;;;;;;11.40;100.00;96970.44;5057754;28;20206;-93
2021/12/30 10:40:26;;;;;;;3.77;2.87;;;;;;;11.53;100.00;96958.72;5058841;28;20801;-86
2021/12/30 10:43:13;;;;;;;4.30;2.73;;;;;;;11.68;100.00;96961.91;5079072;28;20205;-85
2021/12/30 10:45:43;;;;;;;5.67;3.17;;;;;;;11.71;100.00;96958.75;5050996;28;20217;-85
2021/12/30 10:48:11;;;;;;;3.97;3.23;;;;;;;11.84;100.00;96958.66;5051307;28;20303;-86
2021/12/30 10:50:38;;;;;;;3.77;3.10;;;;;;;12.03;100.00;96954.91;5050018;28;20213;-86
2021/12/30 10:53:05;;;;;;;4.37;3.10;;;;;;;12.13;100.00;96951.69;5053857;28;20264;-86
2021/12/30 10:55:34;;;;;;;5.47;2.63;;;;;;;12.21;100.00;96950.56;5073380;28;20225;-86
2021/12/30 10:58:25;;;;;;;4.23;2.67;;;;;;;12.45;100.00;96953.19;5073744;28;20218;-87
2021/12/30 11:00:54;;;;;;;3.73;2.70;;;;;;;12.76;100.00;96952.16;5053920;28;20227;-86
2021/12/30 11:03:24;;;;;;;6.20;3.07;;;;;;;12.93;100.00;96955.03;5062118;28;20232;-86
2021/12/30 11:06:10;;;;;;;8.40;2.93;;;;;;;13.12;100.00;96944.97;5062300;28;20217;-87
2021/12/30 11:08:38;;;;;;;2.80;2.30;;;;;;;13.21;100.00;96951.75;5055971;28;20260;-87
2021/12/30 11:11:22;;;;;;;3.80;2.50;;;;;;;13.50;100.00;96942.72;5063027;28;20294;-86
2021/12/30 11:13:58;;;;;;;4.77;3.07;;;;;;;13.92;100.00;96946.16;5050886;28;20202;-86
2021/12/30 11:16:27;;;;;;;4.13;2.83;;;;;;;13.91;100.00;96930.13;5057943;28;20230;-86
2021/12/30 11:18:55;;;;;;;4.90;3.07;;;;;;;13.91;100.00;96930.13;5061158;28;20269;-86
2021/12/30 11:21:36;;;;;;;6.63;3.60;;;;;;;13.82;100.00;96923.38;5060203;28;20263;-86
2021/12/30 11:24:04;;;;;;;3.57;2.90;;;;;;;13.40;100.00;96918.06;5055762;28;20225;-86
2021/12/30 11:26:33;;;;;;;4.83;3.10;;;;;;;13.07;100.00;96915.03;5057877;28;20205;-86
2021/12/30 11:29:01;;;;;;;6.70;3.37;;;;;;;13.02;100.00;96923.00;5073228;28;20206;-87
2021/12/30 11:31:31;;;;;;;3.20;2.17;;;;;;;12.84;100.00;96919.31;5058837;28;20350;-85
2021/12/30 11:34:00;;;;;;;4.67;2.60;;;;;;;12.93;100.00;96910.88;5057515;28;20202;-86
2021/12/30 11:36:29;;;;;;;6.83;2.63;;;;;;;12.88;100.00;96912.38;5053698;28;20253;-86
2021/12/30 11:38:58;;;;;;;3.30;2.30;;;;;;;13.22;100.00;96904.59;5058924;28;20217;-87
2021/12/30 11:41:28;;;;;;;3.50;2.47;;;;;;;13.72;100.00;96901.44;5075870;28;20198;-87